createdAt,value
2019-01-12T00:00:33.726Z,1.21
2019-01-12T00:03:03.377Z,1.16
2019-01-12T00:05:32.859Z,1.18
2019-01-12T00:08:02.513Z,1.16
2019-01-12T00:10:32.027Z,1.19
2019-01-12T00:13:01.427Z,1.20
2019-01-12T00:15:30.891Z,1.18
2019-01-12T00:18:00.480Z,1.19
2019-01-12T00:20:29.921Z,1.15
2019-01-12T00:22:59.312Z,1.14
2019-01-12T00:25:28.794Z,1.14
2019-01-12T00:27:58.327Z,1.12
2019-01-12T00:30:27.775Z,1.10
2019-01-12T00:32:57.395Z,1.11
2019-01-12T00:35:26.900Z,1.07
2019-01-12T00:37:56.439Z,1.06
2019-01-12T00:40:26.059Z,1.04
2019-01-12T00:42:55.566Z,1.03
2019-01-12T00:45:25.046Z,1.03
2019-01-12T00:47:54.654Z,1.00
2019-01-12T00:50:24.124Z,1.00
2019-01-12T00:52:53.543Z,0.99
2019-01-12T00:55:23.045Z,0.97
2019-01-12T00:57:52.496Z,0.98
2019-01-12T01:00:22.946Z,0.99
2019-01-12T01:02:52.772Z,0.98
2019-01-12T01:05:22.224Z,0.97
2019-01-12T01:07:51.656Z,0.95
2019-01-12T01:10:23.306Z,0.94
2019-01-12T01:12:52.916Z,0.92
2019-01-12T01:15:22.365Z,0.90
2019-01-12T01:17:51.987Z,0.89
2019-01-12T01:20:21.480Z,0.84
2019-01-12T01:22:51.012Z,0.85
2019-01-12T01:25:20.521Z,0.87
2019-01-12T01:27:49.942Z,0.83
2019-01-12T01:30:20.694Z,0.83
2019-01-12T01:32:50.450Z,0.83
2019-01-12T01:35:19.925Z,0.83
2019-01-12T01:37:49.417Z,0.84
2019-01-12T01:40:19.815Z,0.82
2019-01-12T01:42:49.341Z,0.81
2019-01-12T01:45:19.119Z,0.83
2019-01-12T01:47:48.739Z,0.84
2019-01-12T01:50:18.266Z,0.82
2019-01-12T01:52:48.473Z,0.85
2019-01-12T01:55:18.267Z,0.85
2019-01-12T01:57:47.791Z,0.84
2019-01-12T02:00:18.890Z,0.82
2019-01-12T02:02:48.597Z,0.84
2019-01-12T02:05:18.069Z,0.83
2019-01-12T02:07:47.570Z,0.83
2019-01-12T02:10:22.280Z,0.87
2019-01-12T02:12:51.690Z,0.86
2019-01-12T02:15:22.626Z,0.86
2019-01-12T02:17:52.105Z,0.89
2019-01-12T02:20:23.115Z,0.89
2019-01-12T02:22:52.788Z,0.89
2019-01-12T02:25:22.303Z,0.86
2019-01-12T02:27:51.704Z,0.85
2019-01-12T02:30:23.917Z,0.82
2019-01-12T02:32:53.956Z,0.85
2019-01-12T02:35:23.384Z,0.85
2019-01-12T02:37:52.892Z,0.85
2019-01-12T02:40:22.397Z,0.85
2019-01-12T02:42:51.902Z,0.83
2019-01-12T02:45:21.351Z,0.81
2019-01-12T02:47:50.795Z,0.80
2019-01-12T02:50:20.369Z,0.79
2019-01-12T02:52:49.870Z,0.75
2019-01-12T02:55:19.471Z,0.72
2019-01-12T02:57:48.894Z,0.73
2019-01-12T03:00:19.779Z,0.72
2019-01-12T03:02:49.326Z,0.73
2019-01-12T03:05:18.774Z,0.75
2019-01-12T03:07:48.201Z,0.72
2019-01-12T03:10:18.515Z,0.73
2019-01-12T03:12:48.030Z,0.70
2019-01-12T03:15:20.572Z,0.65
2019-01-12T03:17:50.177Z,0.64
2019-01-12T03:20:19.907Z,0.61
2019-01-12T03:22:49.423Z,0.62
2019-01-12T03:25:19.388Z,0.62
2019-01-12T03:27:48.953Z,0.60
2019-01-12T03:30:19.868Z,0.58
2019-01-12T03:32:49.681Z,0.55
2019-01-12T03:35:19.199Z,0.55
2019-01-12T03:37:48.665Z,0.51
2019-01-12T03:40:20.243Z,0.52
2019-01-12T03:42:49.818Z,0.48
2019-01-12T03:45:20.483Z,0.43
2019-01-12T03:47:50.248Z,0.39
2019-01-12T03:50:19.823Z,0.39
2019-01-12T03:52:49.258Z,0.32
2019-01-12T03:55:25.631Z,0.33
2019-01-12T03:57:50.252Z,0.24
2019-01-12T04:00:26.503Z,0.22
2019-01-12T04:02:55.909Z,0.24
2019-01-12T04:05:25.351Z,0.23
2019-01-12T04:07:55.153Z,0.19
2019-01-12T04:10:24.598Z,0.20
2019-01-12T04:12:54.018Z,0.20
2019-01-12T04:15:23.496Z,0.18
2019-01-12T04:17:52.968Z,0.18
2019-01-12T04:20:22.449Z,0.20
2019-01-12T04:22:52.055Z,0.21
2019-01-12T04:25:21.535Z,0.12
2019-01-12T04:27:50.955Z,0.10
2019-01-12T04:30:20.667Z,0.10
2019-01-12T04:32:50.209Z,0.12
2019-01-12T04:35:19.798Z,0.07
2019-01-12T04:37:49.278Z,0.04
2019-01-12T04:40:19.966Z,0.01
2019-01-12T04:42:49.498Z,-0.07
2019-01-12T04:45:18.986Z,-0.06
2019-01-12T04:47:48.449Z,-0.05
2019-01-12T04:50:18.408Z,-0.02
2019-01-12T04:52:47.967Z,-0.03
2019-01-12T04:55:17.563Z,-0.06
2019-01-12T04:57:47.033Z,-0.11
2019-01-12T05:00:18.823Z,-0.14
2019-01-12T05:02:48.316Z,-0.12
2019-01-12T05:05:18.003Z,-0.07
2019-01-12T05:07:47.715Z,-0.10
2019-01-12T05:10:17.494Z,-0.12
2019-01-12T05:12:46.907Z,-0.15
2019-01-12T05:15:16.865Z,-0.18
2019-01-12T05:17:46.497Z,-0.16
2019-01-12T05:20:20.829Z,-0.20
2019-01-12T05:22:50.241Z,-0.16
2019-01-12T05:25:19.959Z,-0.17
2019-01-12T05:27:49.676Z,-0.23
2019-01-12T05:30:23.216Z,-0.16
2019-01-12T05:32:52.708Z,-0.11
2019-01-12T05:35:22.214Z,-0.13
2019-01-12T05:37:51.805Z,-0.14
2019-01-12T05:40:21.384Z,-0.13
2019-01-12T05:42:50.998Z,-0.16
2019-01-12T05:45:20.582Z,-0.13
2019-01-12T05:47:50.031Z,-0.14
2019-01-12T05:50:19.647Z,-0.12
2019-01-12T05:52:49.183Z,-0.13
2019-01-12T05:55:18.677Z,-0.10
2019-01-12T05:57:48.300Z,-0.12
2019-01-12T06:00:23.231Z,-0.11
2019-01-12T06:02:52.807Z,-0.12
2019-01-12T06:05:22.278Z,-0.15
2019-01-12T06:07:51.730Z,-0.16
2019-01-12T06:10:21.261Z,-0.15
2019-01-12T06:12:50.853Z,-0.16
2019-01-12T06:15:20.440Z,-0.14
2019-01-12T06:17:49.958Z,-0.13
2019-01-12T06:20:19.468Z,-0.14
2019-01-12T06:22:48.881Z,-0.15
2019-01-12T06:25:18.411Z,-0.16
2019-01-12T06:27:47.919Z,-0.12
2019-01-12T06:30:19.496Z,-0.12
2019-01-12T06:32:49.056Z,-0.12
2019-01-12T06:35:18.630Z,-0.10
2019-01-12T06:37:48.523Z,-0.09
2019-01-12T06:40:19.355Z,-0.07
2019-01-12T06:42:49.055Z,-0.08
2019-01-12T06:45:19.120Z,-0.09
2019-01-12T06:47:49.246Z,-0.08
2019-01-12T06:50:20.128Z,-0.02
2019-01-12T06:52:49.617Z,0.01
2019-01-12T06:55:19.379Z,0.03
2019-01-12T06:57:48.923Z,0.06
2019-01-12T07:00:20.233Z,0.08
2019-01-12T07:02:49.769Z,0.03
2019-01-12T07:05:19.431Z,0.01
2019-01-12T07:07:48.948Z,0.03
2019-01-12T07:10:18.445Z,0.01
2019-01-12T07:12:48.134Z,0.06
2019-01-12T07:15:17.650Z,0.04
2019-01-12T07:17:47.284Z,0.06
2019-01-12T07:20:18.207Z,0.05
2019-01-12T07:22:47.765Z,0.03
2019-01-12T07:25:17.416Z,0.08
2019-01-12T07:27:47.257Z,0.09
2019-01-12T07:30:19.927Z,0.15
2019-01-12T07:32:49.837Z,0.17
2019-01-12T07:35:19.360Z,0.24
2019-01-12T07:37:48.982Z,0.33
2019-01-12T07:40:18.917Z,0.33
2019-01-12T07:42:48.599Z,0.40
2019-01-12T07:45:18.274Z,0.40
2019-01-12T07:47:47.901Z,0.40
2019-01-12T07:50:18.422Z,0.46
2019-01-12T07:52:47.927Z,0.56
2019-01-12T07:55:17.500Z,0.61
2019-01-12T07:57:47.051Z,0.63
2019-01-12T08:00:19.373Z,0.73
2019-01-12T08:02:49.194Z,0.76
2019-01-12T08:05:19.581Z,0.72
2019-01-12T08:07:49.114Z,0.73
2019-01-12T08:10:27.072Z,0.80
2019-01-12T08:12:56.662Z,0.81
2019-01-12T08:15:26.152Z,0.85
2019-01-12T08:17:55.739Z,0.86
2019-01-12T08:20:25.305Z,0.86
2019-01-12T08:22:54.705Z,0.94
2019-01-12T08:25:24.255Z,1.05
2019-01-12T08:27:54.785Z,1.06
2019-01-12T08:30:24.238Z,1.15
2019-01-12T08:32:53.724Z,1.26
2019-01-12T08:35:23.216Z,1.30
2019-01-12T08:37:52.734Z,1.36
2019-01-12T08:40:22.245Z,1.42
2019-01-12T08:42:51.721Z,1.43
2019-01-12T08:45:21.206Z,1.49
2019-01-12T08:47:50.763Z,1.60
2019-01-12T08:50:20.997Z,1.74
2019-01-12T08:52:50.641Z,1.74
2019-01-12T08:55:20.154Z,1.77
2019-01-12T08:57:49.695Z,1.77
2019-01-12T09:00:21.643Z,1.84
2019-01-12T09:02:51.848Z,1.97
2019-01-12T09:05:21.319Z,2.01
2019-01-12T09:07:50.746Z,2.13
2019-01-12T09:10:21.691Z,2.22
2019-01-12T09:12:51.282Z,2.20
2019-01-12T09:15:21.325Z,2.16
2019-01-12T09:17:50.960Z,2.12
2019-01-12T09:20:20.535Z,2.14
2019-01-12T09:22:50.019Z,2.23
2019-01-12T09:25:19.837Z,2.26
2019-01-12T09:27:49.270Z,2.34
2019-01-12T09:30:20.835Z,2.46
2019-01-12T09:32:50.630Z,2.53
2019-01-12T09:35:20.109Z,2.59
2019-01-12T09:37:49.610Z,2.47
2019-01-12T09:40:21.210Z,2.51
2019-01-12T09:42:50.802Z,2.49
2019-01-12T09:45:20.766Z,2.54
2019-01-12T09:47:50.481Z,2.58
2019-01-12T09:50:21.155Z,2.67
2019-01-12T09:52:50.747Z,2.68
2019-01-12T09:55:20.411Z,2.68
2019-01-12T09:57:50.402Z,2.70
2019-01-12T10:00:25.481Z,2.72
2019-01-12T10:02:54.903Z,2.86
2019-01-12T10:05:24.672Z,2.93
2019-01-12T10:07:54.274Z,3.01
2019-01-12T10:10:23.861Z,3.05
2019-01-12T10:12:53.264Z,3.06
2019-01-12T10:15:22.784Z,2.95
2019-01-12T10:17:52.344Z,2.89
2019-01-12T10:20:21.901Z,3.01
2019-01-12T10:22:52.407Z,3.09
2019-01-12T10:25:22.069Z,3.10
2019-01-12T10:27:51.505Z,3.05
2019-01-12T10:30:26.168Z,3.18
2019-01-12T10:32:56.959Z,3.25
2019-01-12T10:35:26.490Z,3.34
2019-01-12T10:37:56.042Z,3.34
2019-01-12T10:40:25.759Z,3.39
2019-01-12T10:42:55.452Z,3.41
2019-01-12T10:45:25.914Z,3.40
2019-01-12T10:47:56.082Z,3.47
2019-01-12T10:50:36.397Z,3.52
2019-01-12T10:53:06.560Z,3.52
2019-01-12T10:55:36.017Z,3.59
2019-01-12T10:58:08.979Z,3.63
2019-01-12T11:00:39.975Z,3.64
2019-01-12T11:03:09.977Z,3.71
2019-01-12T11:05:39.769Z,3.74
2019-01-12T11:08:09.576Z,3.89
2019-01-12T11:10:39.113Z,3.85
2019-01-12T11:13:08.587Z,3.76
2019-01-12T11:15:38.074Z,3.65
2019-01-12T11:18:07.890Z,3.71
2019-01-12T11:20:37.492Z,3.77
2019-01-12T11:23:07.109Z,3.82
2019-01-12T11:25:42.827Z,3.90
2019-01-12T11:28:07.932Z,3.82
2019-01-12T11:30:37.450Z,3.87
2019-01-12T11:33:06.900Z,3.90
2019-01-12T11:35:37.873Z,3.85
2019-01-12T11:38:07.462Z,3.83
2019-01-12T11:40:37.208Z,3.77
2019-01-12T11:43:07.085Z,3.83
2019-01-12T11:45:36.478Z,3.73
2019-01-12T11:48:06.714Z,3.76
2019-01-12T11:50:36.248Z,3.68
2019-01-12T11:53:05.826Z,3.67
2019-01-12T11:55:35.298Z,3.72
2019-01-12T11:58:06.034Z,3.78
2019-01-12T12:00:35.621Z,3.78
2019-01-12T12:03:06.601Z,3.77
2019-01-12T12:05:36.015Z,3.85
2019-01-12T12:08:05.702Z,3.84
2019-01-12T12:10:35.191Z,3.86
2019-01-12T12:13:04.912Z,3.86
2019-01-12T12:15:34.300Z,3.73
2019-01-12T12:18:03.777Z,3.69
2019-01-12T12:20:33.406Z,3.62
2019-01-12T12:23:02.872Z,3.70
2019-01-12T12:25:32.310Z,3.74
2019-01-12T12:28:02.037Z,3.76
2019-01-12T12:30:31.984Z,3.74
2019-01-12T12:33:01.407Z,3.72
2019-01-12T12:35:37.478Z,3.80
2019-01-12T12:38:02.379Z,3.85
2019-01-12T12:40:31.804Z,3.85
2019-01-12T12:43:01.556Z,3.87
2019-01-12T12:45:32.980Z,3.93
2019-01-12T12:48:02.469Z,3.96
2019-01-12T12:50:32.080Z,3.92
2019-01-12T12:53:01.461Z,3.94
2019-01-12T12:55:30.960Z,3.96
2019-01-12T12:58:01.180Z,3.99
2019-01-12T13:00:34.494Z,4.04
2019-01-12T13:03:04.728Z,3.94
2019-01-12T13:05:34.107Z,3.93
2019-01-12T13:08:03.585Z,3.86
2019-01-12T13:10:33.909Z,3.90
2019-01-12T13:13:03.515Z,3.85
2019-01-12T13:15:32.934Z,3.84
2019-01-12T13:18:02.357Z,3.90
2019-01-12T13:20:31.832Z,3.87
2019-01-12T13:23:01.303Z,3.85
2019-01-12T13:25:30.725Z,3.90
2019-01-12T13:28:00.091Z,3.93
2019-01-12T13:30:29.666Z,3.96
2019-01-12T13:32:59.397Z,4.00
2019-01-12T13:35:28.789Z,3.92
2019-01-12T13:37:58.282Z,3.84
2019-01-12T13:40:29.455Z,3.84
2019-01-12T13:42:58.957Z,3.81
2019-01-12T13:45:28.443Z,3.74
2019-01-12T13:47:57.878Z,3.67
2019-01-12T13:50:28.560Z,3.69
2019-01-12T13:52:58.058Z,3.76
2019-01-12T13:55:27.726Z,3.77
2019-01-12T13:57:57.157Z,3.71
2019-01-12T14:00:29.258Z,3.63
2019-01-12T14:03:01.569Z,3.59
2019-01-12T14:05:31.251Z,3.55
2019-01-12T14:08:00.899Z,3.48
2019-01-12T14:10:30.531Z,3.42
2019-01-12T14:13:00.123Z,3.42
2019-01-12T14:15:29.722Z,3.41
2019-01-12T14:17:59.364Z,3.38
2019-01-12T14:20:34.170Z,3.30
2019-01-12T14:23:03.618Z,3.24
2019-01-12T14:25:33.140Z,3.17
2019-01-12T14:28:02.629Z,3.16
2019-01-12T14:30:32.279Z,3.13
2019-01-12T14:33:01.698Z,3.08
2019-01-12T14:35:31.183Z,3.06
2019-01-12T14:38:00.901Z,3.01
2019-01-12T14:40:30.330Z,2.99
2019-01-12T14:42:59.711Z,2.95
2019-01-12T14:45:33.298Z,2.88
2019-01-12T14:48:03.189Z,2.86
2019-01-12T14:50:32.685Z,2.82
2019-01-12T14:53:02.103Z,2.76
2019-01-12T14:55:31.617Z,2.71
2019-01-12T14:58:02.748Z,2.67
2019-01-12T15:00:32.643Z,2.63
2019-01-12T15:03:02.099Z,2.58
2019-01-12T15:05:32.843Z,2.54
2019-01-12T15:08:02.268Z,2.49
2019-01-12T15:10:31.872Z,2.42
2019-01-12T15:13:01.372Z,2.35
2019-01-12T15:15:30.854Z,2.30
2019-01-12T15:18:00.276Z,2.27
2019-01-12T15:20:31.438Z,2.22
2019-01-12T15:23:01.201Z,2.16
2019-01-12T15:25:30.577Z,2.10
2019-01-12T15:27:59.975Z,2.03
2019-01-12T15:30:33.385Z,1.99
2019-01-12T15:33:05.356Z,1.96
2019-01-12T15:35:36.119Z,1.93
2019-01-12T15:38:05.851Z,1.90
2019-01-12T15:40:35.232Z,1.90
2019-01-12T15:43:04.859Z,1.87
2019-01-12T15:45:34.536Z,1.82
2019-01-12T15:48:04.115Z,1.81
2019-01-12T15:50:33.611Z,1.76
2019-01-12T15:53:03.158Z,1.77
2019-01-12T15:55:32.747Z,1.74
2019-01-12T15:58:02.237Z,1.76
2019-01-12T16:00:32.001Z,1.72
2019-01-12T16:03:01.364Z,1.69
2019-01-12T16:05:31.566Z,1.64
2019-01-12T16:08:01.314Z,1.60
2019-01-12T16:10:30.827Z,1.57
2019-01-12T16:13:00.227Z,1.57
2019-01-12T16:15:29.854Z,1.52
2019-01-12T16:17:59.846Z,1.45
2019-01-12T16:20:37.752Z,1.40
2019-01-12T16:23:07.347Z,1.34
2019-01-12T16:25:36.892Z,1.30
2019-01-12T16:28:06.462Z,1.26
2019-01-12T16:30:35.961Z,1.21
2019-01-12T16:33:05.651Z,1.14
2019-01-12T16:35:35.081Z,1.09
2019-01-12T16:38:04.600Z,1.07
2019-01-12T16:40:34.086Z,1.02
2019-01-12T16:43:04.012Z,0.99
2019-01-12T16:45:33.500Z,0.92
2019-01-12T16:48:04.574Z,0.91
2019-01-12T16:50:34.112Z,0.84
2019-01-12T16:53:03.645Z,0.84
2019-01-12T16:55:32.989Z,0.83
2019-01-12T16:58:02.512Z,0.84
2019-01-12T17:00:32.706Z,0.86
2019-01-12T17:03:02.443Z,0.92
2019-01-12T17:05:31.956Z,1.00
2019-01-12T17:08:01.561Z,1.05
2019-01-12T17:10:32.119Z,1.03
2019-01-12T17:13:01.961Z,1.03
2019-01-12T17:15:34.767Z,0.96
2019-01-12T17:18:02.787Z,0.98
2019-01-12T17:20:32.226Z,1.05
2019-01-12T17:23:03.294Z,1.01
2019-01-12T17:25:33.046Z,0.98
2019-01-12T17:28:02.678Z,0.91
2019-01-12T17:30:32.145Z,0.92
2019-01-12T17:33:01.571Z,0.85
2019-01-12T17:35:31.119Z,0.85
2019-01-12T17:38:00.862Z,0.87
2019-01-12T17:40:30.348Z,0.84
2019-01-12T17:42:59.901Z,0.85
2019-01-12T17:45:29.354Z,0.84
2019-01-12T17:47:58.858Z,0.85
2019-01-12T17:50:29.203Z,0.85
2019-01-12T17:52:58.698Z,0.84
2019-01-12T17:55:28.922Z,0.85
2019-01-12T17:57:58.382Z,0.81
2019-01-12T18:00:49.982Z,0.83
2019-01-12T18:03:19.534Z,0.84
2019-01-12T18:05:48.940Z,0.84
2019-01-12T18:08:18.342Z,0.84
2019-01-12T18:10:48.253Z,0.77
2019-01-12T18:13:17.806Z,0.77
2019-01-12T18:15:47.237Z,0.77
2019-01-12T18:18:16.790Z,0.78
2019-01-12T18:20:46.197Z,0.75
2019-01-12T18:23:15.579Z,0.72
2019-01-12T18:25:45.388Z,0.71
2019-01-12T18:28:14.860Z,0.72
2019-01-12T18:30:44.264Z,0.72
2019-01-12T18:33:13.902Z,0.71
2019-01-12T18:35:43.392Z,0.70
2019-01-12T18:38:12.900Z,0.69
2019-01-12T18:40:42.326Z,0.68
2019-01-12T18:43:11.748Z,0.65
2019-01-12T18:45:41.545Z,0.60
2019-01-12T18:48:11.100Z,0.55
2019-01-12T18:50:40.496Z,0.53
2019-01-12T18:53:10.184Z,0.52
2019-01-12T18:55:39.947Z,0.51
2019-01-12T18:58:09.435Z,0.50
2019-01-12T19:00:38.817Z,0.51
2019-01-12T19:03:08.295Z,0.53
2019-01-12T19:05:37.811Z,0.55
2019-01-12T19:08:07.316Z,0.53
2019-01-12T19:10:36.756Z,0.54
2019-01-12T19:13:06.501Z,0.50
2019-01-12T19:15:36.017Z,0.47
2019-01-12T19:18:06.062Z,0.51
2019-01-12T19:20:35.460Z,0.49
2019-01-12T19:23:04.878Z,0.44
2019-01-12T19:25:34.554Z,0.42
2019-01-12T19:28:04.032Z,0.41
2019-01-12T19:30:33.419Z,0.43
2019-01-12T19:33:02.851Z,0.44
2019-01-12T19:35:32.337Z,0.44
2019-01-12T19:38:01.728Z,0.46
2019-01-12T19:40:31.262Z,0.47
2019-01-12T19:43:00.750Z,0.52
2019-01-12T19:45:30.127Z,0.51
2019-01-12T19:47:59.804Z,0.54
2019-01-12T19:50:29.267Z,0.55
2019-01-12T19:52:58.795Z,0.58
2019-01-12T19:55:29.425Z,0.60
2019-01-12T19:57:58.902Z,0.58
2019-01-12T20:00:33.039Z,0.55
2019-01-12T20:03:02.653Z,0.50
2019-01-12T20:05:32.407Z,0.46
2019-01-12T20:08:01.884Z,0.44
2019-01-12T20:10:31.529Z,0.45
2019-01-12T20:13:01.031Z,0.45
2019-01-12T20:15:30.479Z,0.49
2019-01-12T20:18:00.077Z,0.48
2019-01-12T20:20:29.901Z,0.45
2019-01-12T20:22:59.393Z,0.43
2019-01-12T20:25:30.576Z,0.34
2019-01-12T20:28:02.689Z,0.28
2019-01-12T20:31:06.369Z,0.27
2019-01-12T20:34:09.763Z,0.27
2019-01-12T20:37:28.782Z,0.31
2019-01-12T20:40:39.109Z,0.27
2019-01-12T20:43:57.706Z,0.25
2019-01-12T20:46:50.187Z,0.24
2019-01-12T20:49:47.497Z,0.22
2019-01-12T20:52:53.406Z,0.18
2019-01-12T20:55:59.735Z,0.13
2019-01-12T20:58:57.007Z,0.08
2019-01-12T21:01:55.022Z,0.01
2019-01-12T21:05:04.437Z,0.01
2019-01-12T21:07:51.710Z,-0.05
2019-01-12T21:11:08.185Z,-0.10
2019-01-12T21:14:24.997Z,-0.13
2019-01-12T21:17:14.544Z,-0.07
2019-01-12T21:19:48.442Z,-0.12
2019-01-12T21:22:15.604Z,-0.14
2019-01-12T21:24:45.002Z,-0.22
2019-01-12T21:27:14.961Z,-0.28
2019-01-12T21:29:44.462Z,-0.32
2019-01-12T21:32:13.964Z,-0.32
2019-01-12T21:34:43.518Z,-0.32
2019-01-12T21:37:12.959Z,-0.34
2019-01-12T21:39:42.450Z,-0.31
2019-01-12T21:42:11.985Z,-0.32
2019-01-12T21:44:41.385Z,-0.33
2019-01-12T21:47:10.916Z,-0.34
2019-01-12T21:49:40.410Z,-0.32
2019-01-12T21:52:09.782Z,-0.36
2019-01-12T21:54:39.274Z,-0.39
2019-01-12T21:57:08.962Z,-0.38
2019-01-12T21:59:42.437Z,-0.31
2019-01-12T22:02:09.569Z,-0.30
2019-01-12T22:04:39.195Z,-0.27
2019-01-12T22:07:08.705Z,-0.27
2019-01-12T22:09:38.077Z,-0.28
2019-01-12T22:12:07.531Z,-0.30
2019-01-12T22:14:37.130Z,-0.30
2019-01-12T22:17:06.611Z,-0.22
2019-01-12T22:19:36.052Z,-0.19
2019-01-12T22:22:06.004Z,-0.13
2019-01-12T22:24:35.484Z,-0.12
2019-01-12T22:27:04.936Z,-0.17
2019-01-12T22:29:34.441Z,-0.15
2019-01-12T22:32:03.921Z,-0.12
2019-01-12T22:34:33.351Z,-0.05
2019-01-12T22:37:02.746Z,0.05
2019-01-12T22:39:32.234Z,0.07
2019-01-12T22:42:01.745Z,0.12
2019-01-12T22:44:31.137Z,0.16
2019-01-12T22:47:00.886Z,0.19
2019-01-12T22:49:30.403Z,0.21
2019-01-12T22:51:59.880Z,0.22
2019-01-12T22:54:29.505Z,0.23
2019-01-12T22:56:58.908Z,0.22
2019-01-12T22:59:28.382Z,0.24
2019-01-12T23:02:03.769Z,0.27
2019-01-12T23:04:33.951Z,0.30
2019-01-12T23:07:03.497Z,0.29
2019-01-12T23:09:32.946Z,0.29
2019-01-12T23:12:02.322Z,0.24
2019-01-12T23:14:33.015Z,0.21
2019-01-12T23:17:02.763Z,0.23
2019-01-12T23:19:32.208Z,0.27
2019-01-12T23:22:01.668Z,0.27
2019-01-12T23:24:31.418Z,0.29
2019-01-12T23:27:00.947Z,0.20
2019-01-12T23:29:30.367Z,0.17
2019-01-12T23:31:59.862Z,0.11
2019-01-12T23:34:29.395Z,0.09
2019-01-12T23:36:58.880Z,0.17
2019-01-12T23:39:28.477Z,0.14
2019-01-12T23:41:57.875Z,0.12
2019-01-12T23:44:27.371Z,0.19
2019-01-12T23:46:56.959Z,0.28
2019-01-12T23:49:26.459Z,0.33
2019-01-12T23:51:55.974Z,0.35
2019-01-12T23:54:25.409Z,0.37
2019-01-12T23:56:54.812Z,0.33
2019-01-12T23:59:24.292Z,0.30
